logo
Search for airport 
image banner adimage banner adimage banner ad
image banner ad

SCQP - La Araucania

Located in Freire, Chile

ICAO - , IATA -

Data provided by Airmate  

General information

Coordinates: S38°55'33" W72°39'6"
Elevation is 321 feet MSL.
Magnetic variation is 6° East
View others Airports in Araucanía

Operational data

Special qualification required
Current time UTC:
Current local time:
Weather
METAR: SCQP 161900Z 18004KT 130V210 9999 OVC007 09/08 Q1024
TAF: TAF AMD SCQP 161949Z 1620/1718 18004KT 9999 BKN010 TX09/1620Z TN04/1706Z BECMG 1702/1704 3000 BR TEMPO 1705/1710 0500 FG OVC002 BECMG 1713/1715 03006KT BKN030 BECMG 1716/1718 7000 -RA SCT010 OVC020
View NOTAMs / SUP AIP / TFR affecting this airport [VIEW]
Communications frequencies: [VIEW]

Runways:

RWY identifierQFULength (ft)Width (ft)SurfaceLDA (ft)
018005148UNK
198005148UNK

Airport contact information

Address: Freire Chile

Satellite view of SCQP